sensor_id;sensor_type;location;lat;lon;timestamp;temperature;humidity
3408;DHT22;1717;50.240;8.406;2022-10-13T00:00:47;11.70;99.90
3408;DHT22;1717;50.240;8.406;2022-10-13T00:03:14;11.70;99.90
3408;DHT22;1717;50.240;8.406;2022-10-13T00:05:43;11.70;99.90
3408;DHT22;1717;50.240;8.406;2022-10-13T00:08:13;11.70;99.90
3408;DHT22;1717;50.240;8.406;2022-10-13T00:10:41;11.70;99.90
3408;DHT22;1717;50.240;8.406;2022-10-13T00:13:08;11.60;99.90
3408;DHT22;1717;50.240;8.406;2022-10-13T00:15:37;11.60;99.90
3408;DHT22;1717;50.240;8.406;2022-10-13T00:18:04;11.60;99.90
3408;DHT22;1717;50.240;8.406;2022-10-13T00:20:31;11.60;99.90
3408;DHT22;1717;50.240;8.406;2022-10-13T00:22:58;11.60;99.90
3408;DHT22;1717;50.240;8.406;2022-10-13T00:25:27;11.50;99.90
3408;DHT22;1717;50.240;8.406;2022-10-13T00:27:54;11.50;99.90
3408;DHT22;1717;50.240;8.406;2022-10-13T00:30:20;11.50;99.90
3408;DHT22;1717;50.240;8.406;2022-10-13T00:32:47;11.60;99.90
3408;DHT22;1717;50.240;8.406;2022-10-13T00:35:14;11.60;99.90
3408;DHT22;1717;50.240;8.406;2022-10-13T00:37:41;11.50;99.90
3408;DHT22;1717;50.240;8.406;2022-10-13T00:40:09;11.60;99.90
3408;DHT22;1717;50.240;8.406;2022-10-13T00:42:39;11.50;99.90
3408;DHT22;1717;50.240;8.406;2022-10-13T00:45:19;11.50;99.90
3408;DHT22;1717;50.240;8.406;2022-10-13T00:47:49;11.50;99.90
3408;DHT22;1717;50.240;8.406;2022-10-13T00:50:20;11.50;99.90
3408;DHT22;1717;50.240;8.406;2022-10-13T00:52:49;11.50;99.90
3408;DHT22;1717;50.240;8.406;2022-10-13T00:55:21;11.50;99.90
3408;DHT22;1717;50.240;8.406;2022-10-13T00:57:52;11.50;99.90
3408;DHT22;1717;50.240;8.406;2022-10-13T01:00:21;11.50;99.90
3408;DHT22;1717;50.240;8.406;2022-10-13T01:02:49;11.50;99.90
3408;DHT22;1717;50.240;8.406;2022-10-13T01:05:17;11.50;99.90
3408;DHT22;1717;50.240;8.406;2022-10-13T01:07:46;11.50;99.90
3408;DHT22;1717;50.240;8.406;2022-10-13T01:10:14;11.50;99.90
3408;DHT22;1717;50.240;8.406;2022-10-13T01:12:57;11.50;99.90
3408;DHT22;1717;50.240;8.406;2022-10-13T01:15:29;11.50;99.90
3408;DHT22;1717;50.240;8.406;2022-10-13T01:18:03;11.40;99.90
3408;DHT22;1717;50.240;8.406;2022-10-13T01:20:57;11.40;99.90
3408;DHT22;1717;50.240;8.406;2022-10-13T01:26:41;11.40;99.90
3408;DHT22;1717;50.240;8.406;2022-10-13T01:29:31;11.40;
3408;DHT22;1717;50.240;8.406;2022-10-13T01:32:07;11.40;99.90
3408;DHT22;1717;50.240;8.406;2022-10-13T01:34:43;11.30;99.90
3408;DHT22;1717;50.240;8.406;2022-10-13T01:37:18;11.40;99.90
3408;DHT22;1717;50.240;8.406;2022-10-13T01:39:52;11.40;99.90
3408;DHT22;1717;50.240;8.406;2022-10-13T01:42:23;11.40;99.90
3408;DHT22;1717;50.240;8.406;2022-10-13T01:44:56;11.40;99.90
3408;DHT22;1717;50.240;8.406;2022-10-13T01:47:26;11.40;99.90
3408;DHT22;1717;50.240;8.406;2022-10-13T01:49:55;11.40;99.90
3408;DHT22;1717;50.240;8.406;2022-10-13T01:52:26;11.40;99.90
3408;DHT22;1717;50.240;8.406;2022-10-13T01:54:56;11.40;99.90
3408;DHT22;1717;50.240;8.406;2022-10-13T01:57:29;11.40;99.90
3408;DHT22;1717;50.240;8.406;2022-10-13T01:59:57;11.40;99.90
3408;DHT22;1717;50.240;8.406;2022-10-13T02:02:28;11.50;99.90
3408;DHT22;1717;50.240;8.406;2022-10-13T02:05:04;11.50;99.90
3408;DHT22;1717;50.240;8.406;2022-10-13T02:07:39;11.60;99.90
3408;DHT22;1717;50.240;8.406;2022-10-13T02:10:13;11.60;99.90
3408;DHT22;1717;50.240;8.406;2022-10-13T02:12:48;11.60;99.90
3408;DHT22;1717;50.240;8.406;2022-10-13T02:15:18;11.80;99.90
3408;DHT22;1717;50.240;8.406;2022-10-13T02:17:49;11.60;99.90
3408;DHT22;1717;50.240;8.406;2022-10-13T02:20:18;11.60;99.90
3408;DHT22;1717;50.240;8.406;2022-10-13T02:22:47;11.60;99.90
3408;DHT22;1717;50.240;8.406;2022-10-13T02:25:16;11.70;99.90
3408;DHT22;1717;50.240;8.406;2022-10-13T02:27:43;11.70;99.90
3408;DHT22;1717;50.240;8.406;2022-10-13T02:30:20;11.80;99.90
3408;DHT22;1717;50.240;8.406;2022-10-13T02:32:49;11.70;99.90
3408;DHT22;1717;50.240;8.406;2022-10-13T02:35:16;11.70;99.90
3408;DHT22;1717;50.240;8.406;2022-10-13T02:37:43;11.70;99.90
3408;DHT22;1717;50.240;8.406;2022-10-13T02:40:11;11.70;99.90
3408;DHT22;1717;50.240;8.406;2022-10-13T02:42:38;11.70;99.90
3408;DHT22;1717;50.240;8.406;2022-10-13T02:45:06;11.80;99.90
3408;DHT22;1717;50.240;8.406;2022-10-13T02:47:33;11.70;99.90
3408;DHT22;1717;50.240;8.406;2022-10-13T02:50:02;11.70;99.90
3408;DHT22;1717;50.240;8.406;2022-10-13T02:52:29;11.70;99.90
3408;DHT22;1717;50.240;8.406;2022-10-13T02:54:56;11.70;99.90
3408;DHT22;1717;50.240;8.406;2022-10-13T02:57:23;11.70;99.90
3408;DHT22;1717;50.240;8.406;2022-10-13T02:59:49;11.80;99.90
3408;DHT22;1717;50.240;8.406;2022-10-13T03:02:17;11.70;99.90
3408;DHT22;1717;50.240;8.406;2022-10-13T03:04:44;11.70;99.90
3408;DHT22;1717;50.240;8.406;2022-10-13T03:07:13;11.70;99.90
3408;DHT22;1717;50.240;8.406;2022-10-13T03:09:40;11.70;99.90
3408;DHT22;1717;50.240;8.406;2022-10-13T03:12:07;11.80;99.90
3408;DHT22;1717;50.240;8.406;2022-10-13T03:14:34;11.80;99.90
3408;DHT22;1717;50.240;8.406;2022-10-13T03:17:01;11.70;99.90
3408;DHT22;1717;50.240;8.406;2022-10-13T03:19:28;11.80;99.90
3408;DHT22;1717;50.240;8.406;2022-10-13T03:21:55;11.80;99.90
3408;DHT22;1717;50.240;8.406;2022-10-13T03:24:23;11.80;99.90
3408;DHT22;1717;50.240;8.406;2022-10-13T03:26:50;11.80;99.90
3408;DHT22;1717;50.240;8.406;2022-10-13T03:29:17;11.80;99.90
3408;DHT22;1717;50.240;8.406;2022-10-13T03:31:44;11.80;99.90
3408;DHT22;1717;50.240;8.406;2022-10-13T03:34:12;11.80;99.90
3408;DHT22;1717;50.240;8.406;2022-10-13T03:36:40;11.90;99.90
3408;DHT22;1717;50.240;8.406;2022-10-13T03:39:08;11.80;99.90
3408;DHT22;1717;50.240;8.406;2022-10-13T03:41:36;11.80;99.90
3408;DHT22;1717;50.240;8.406;2022-10-13T03:44:03;11.80;99.90
3408;DHT22;1717;50.240;8.406;2022-10-13T03:46:30;11.80;99.90
3408;DHT22;1717;50.240;8.406;2022-10-13T03:48:57;11.80;99.90
3408;DHT22;1717;50.240;8.406;2022-10-13T03:51:24;11.80;99.90
3408;DHT22;1717;50.240;8.406;2022-10-13T03:53:52;11.80;99.90
3408;DHT22;1717;50.240;8.406;2022-10-13T03:56:21;11.80;99.90
3408;DHT22;1717;50.240;8.406;2022-10-13T03:58:50;11.80;99.90
3408;DHT22;1717;50.240;8.406;2022-10-13T04:01:19;11.80;99.90
3408;DHT22;1717;50.240;8.406;2022-10-13T04:03:46;11.80;99.90
3408;DHT22;1717;50.240;8.406;2022-10-13T04:06:13;11.80;99.90
3408;DHT22;1717;50.240;8.406;2022-10-13T04:08:40;11.80;99.90
3408;DHT22;1717;50.240;8.406;2022-10-13T04:11:10;11.80;99.90
3408;DHT22;1717;50.240;8.406;2022-10-13T04:13:37;11.80;99.90
3408;DHT22;1717;50.240;8.406;2022-10-13T04:16:14;11.80;99.90
3408;DHT22;1717;50.240;8.406;2022-10-13T04:18:42;11.80;99.90
3408;DHT22;1717;50.240;8.406;2022-10-13T04:21:11;11.80;99.90
3408;DHT22;1717;50.240;8.406;2022-10-13T04:23:39;11.80;99.90
3408;DHT22;1717;50.240;8.406;2022-10-13T04:26:06;11.80;99.90
3408;DHT22;1717;50.240;8.406;2022-10-13T04:28:33;11.90;99.90
3408;DHT22;1717;50.240;8.406;2022-10-13T04:31:01;11.90;99.90
3408;DHT22;1717;50.240;8.406;2022-10-13T04:33:29;11.90;99.90
3408;DHT22;1717;50.240;8.406;2022-10-13T04:35:56;11.90;99.90
3408;DHT22;1717;50.240;8.406;2022-10-13T04:38:23;11.90;99.90
3408;DHT22;1717;50.240;8.406;2022-10-13T04:40:50;11.90;99.90
3408;DHT22;1717;50.240;8.406;2022-10-13T04:43:17;11.90;99.90
3408;DHT22;1717;50.240;8.406;2022-10-13T04:45:44;11.90;99.90
3408;DHT22;1717;50.240;8.406;2022-10-13T04:48:11;12.00;99.90
3408;DHT22;1717;50.240;8.406;2022-10-13T04:50:40;12.00;99.90
3408;DHT22;1717;50.240;8.406;2022-10-13T04:53:07;12.00;99.90
3408;DHT22;1717;50.240;8.406;2022-10-13T04:55:35;12.00;99.90
3408;DHT22;1717;50.240;8.406;2022-10-13T04:58:02;12.00;99.90
3408;DHT22;1717;50.240;8.406;2022-10-13T05:00:29;12.00;99.90
3408;DHT22;1717;50.240;8.406;2022-10-13T05:02:56;12.00;99.90
3408;DHT22;1717;50.240;8.406;2022-10-13T05:05:22;12.00;99.90
3408;DHT22;1717;50.240;8.406;2022-10-13T05:07:51;12.00;99.90
3408;DHT22;1717;50.240;8.406;2022-10-13T05:10:17;12.00;99.90
3408;DHT22;1717;50.240;8.406;2022-10-13T05:12:44;12.10;99.90
3408;DHT22;1717;50.240;8.406;2022-10-13T05:15:11;12.20;99.90
3408;DHT22;1717;50.240;8.406;2022-10-13T05:17:38;12.10;99.90
3408;DHT22;1717;50.240;8.406;2022-10-13T05:20:06;12.10;99.90
3408;DHT22;1717;50.240;8.406;2022-10-13T05:22:33;12.10;99.90
3408;DHT22;1717;50.240;8.406;2022-10-13T05:25:01;12.10;99.90
3408;DHT22;1717;50.240;8.406;2022-10-13T05:27:28;12.10;99.90
3408;DHT22;1717;50.240;8.406;2022-10-13T05:29:55;12.10;99.90
3408;DHT22;1717;50.240;8.406;2022-10-13T05:32:22;12.10;99.90
3408;DHT22;1717;50.240;8.406;2022-10-13T05:34:49;12.10;99.90
3408;DHT22;1717;50.240;8.406;2022-10-13T05:37:16;12.20;99.90
3408;DHT22;1717;50.240;8.406;2022-10-13T05:39:43;12.20;99.90
3408;DHT22;1717;50.240;8.406;2022-10-13T05:42:11;12.20;99.90
3408;DHT22;1717;50.240;8.406;2022-10-13T05:44:38;12.20;99.90
3408;DHT22;1717;50.240;8.406;2022-10-13T05:47:05;12.20;99.90
3408;DHT22;1717;50.240;8.406;2022-10-13T05:49:32;12.20;99.90
3408;DHT22;1717;50.240;8.406;2022-10-13T05:52:02;12.20;99.90
3408;DHT22;1717;50.240;8.406;2022-10-13T05:54:32;12.20;99.90
3408;DHT22;1717;50.240;8.406;2022-10-13T05:57:03;12.20;99.90
3408;DHT22;1717;50.240;8.406;2022-10-13T05:59:34;12.20;99.90
3408;DHT22;1717;50.240;8.406;2022-10-13T06:02:04;12.20;99.90
3408;DHT22;1717;50.240;8.406;2022-10-13T06:04:36;12.20;99.90
3408;DHT22;1717;50.240;8.406;2022-10-13T06:07:04;12.20;99.90
3408;DHT22;1717;50.240;8.406;2022-10-13T06:09:32;12.20;99.90
3408;DHT22;1717;50.240;8.406;2022-10-13T06:12:00;12.20;99.90
3408;DHT22;1717;50.240;8.406;2022-10-13T06:14:27;12.20;99.90
3408;DHT22;1717;50.240;8.406;2022-10-13T06:16:55;12.20;99.90
3408;DHT22;1717;50.240;8.406;2022-10-13T06:19:22;12.20;99.90
3408;DHT22;1717;50.240;8.406;2022-10-13T06:21:49;12.20;99.90
3408;DHT22;1717;50.240;8.406;2022-10-13T06:24:16;12.20;99.90
3408;DHT22;1717;50.240;8.406;2022-10-13T06:26:43;12.20;99.90
3408;DHT22;1717;50.240;8.406;2022-10-13T06:29:10;12.20;99.90
3408;DHT22;1717;50.240;8.406;2022-10-13T06:31:37;12.20;99.90
3408;DHT22;1717;50.240;8.406;2022-10-13T06:34:05;12.20;99.90
3408;DHT22;1717;50.240;8.406;2022-10-13T06:36:32;12.20;99.90
3408;DHT22;1717;50.240;8.406;2022-10-13T06:38:58;12.20;99.90
3408;DHT22;1717;50.240;8.406;2022-10-13T06:41:25;12.30;99.90
3408;DHT22;1717;50.240;8.406;2022-10-13T06:43:52;12.30;99.90
3408;DHT22;1717;50.240;8.406;2022-10-13T06:46:19;12.30;99.90
3408;DHT22;1717;50.240;8.406;2022-10-13T06:48:48;12.40;99.90
3408;DHT22;1717;50.240;8.406;2022-10-13T06:51:16;12.40;99.90
3408;DHT22;1717;50.240;8.406;2022-10-13T06:53:43;12.40;99.90
3408;DHT22;1717;50.240;8.406;2022-10-13T06:56:10;12.40;99.90
3408;DHT22;1717;50.240;8.406;2022-10-13T06:58:37;12.40;99.90
3408;DHT22;1717;50.240;8.406;2022-10-13T07:01:06;12.40;99.90
3408;DHT22;1717;50.240;8.406;2022-10-13T07:03:33;12.40;99.90
3408;DHT22;1717;50.240;8.406;2022-10-13T07:06:00;12.40;99.90
3408;DHT22;1717;50.240;8.406;2022-10-13T07:08:30;12.50;99.90
3408;DHT22;1717;50.240;8.406;2022-10-13T07:10:57;12.50;99.90
3408;DHT22;1717;50.240;8.406;2022-10-13T07:13:24;12.50;99.90
3408;DHT22;1717;50.240;8.406;2022-10-13T07:15:51;12.60;99.90
3408;DHT22;1717;50.240;8.406;2022-10-13T07:18:18;12.60;99.90
3408;DHT22;1717;50.240;8.406;2022-10-13T07:20:45;12.70;99.90
3408;DHT22;1717;50.240;8.406;2022-10-13T07:23:12;12.70;99.90
3408;DHT22;1717;50.240;8.406;2022-10-13T07:25:41;12.80;99.90
3408;DHT22;1717;50.240;8.406;2022-10-13T07:28:08;12.80;99.90
3408;DHT22;1717;50.240;8.406;2022-10-13T07:30:37;12.80;99.90
3408;DHT22;1717;50.240;8.406;2022-10-13T07:33:05;12.90;99.90
3408;DHT22;1717;50.240;8.406;2022-10-13T07:35:32;12.90;99.90
3408;DHT22;1717;50.240;8.406;2022-10-13T07:37:59;12.90;99.90
3408;DHT22;1717;50.240;8.406;2022-10-13T07:40:26;13.00;99.90
3408;DHT22;1717;50.240;8.406;2022-10-13T07:42:56;13.00;99.90
3408;DHT22;1717;50.240;8.406;2022-10-13T07:45:23;13.00;99.90
3408;DHT22;1717;50.240;8.406;2022-10-13T07:47:50;13.00;99.90
3408;DHT22;1717;50.240;8.406;2022-10-13T07:50:17;13.10;99.90
3408;DHT22;1717;50.240;8.406;2022-10-13T07:52:44;13.10;99.90
3408;DHT22;1717;50.240;8.406;2022-10-13T07:55:11;13.10;99.90
3408;DHT22;1717;50.240;8.406;2022-10-13T07:57:39;13.20;99.90
3408;DHT22;1717;50.240;8.406;2022-10-13T08:00:09;13.20;99.90
3408;DHT22;1717;50.240;8.406;2022-10-13T08:02:36;13.20;99.90
3408;DHT22;1717;50.240;8.406;2022-10-13T08:05:04;13.30;99.90
3408;DHT22;1717;50.240;8.406;2022-10-13T08:07:31;13.30;99.90
3408;DHT22;1717;50.240;8.406;2022-10-13T08:09:58;13.40;99.90
3408;DHT22;1717;50.240;8.406;2022-10-13T08:12:25;13.30;99.90
3408;DHT22;1717;50.240;8.406;2022-10-13T08:14:52;13.40;99.90
3408;DHT22;1717;50.240;8.406;2022-10-13T08:17:21;13.40;99.90
3408;DHT22;1717;50.240;8.406;2022-10-13T08:19:49;13.40;99.90
3408;DHT22;1717;50.240;8.406;2022-10-13T08:22:17;13.40;99.90
3408;DHT22;1717;50.240;8.406;2022-10-13T08:24:44;13.40;99.90
3408;DHT22;1717;50.240;8.406;2022-10-13T08:27:12;13.50;99.90
3408;DHT22;1717;50.240;8.406;2022-10-13T08:29:41;13.50;99.90
3408;DHT22;1717;50.240;8.406;2022-10-13T08:32:08;13.50;99.90
3408;DHT22;1717;50.240;8.406;2022-10-13T08:34:37;13.60;99.90
3408;DHT22;1717;50.240;8.406;2022-10-13T08:37:04;13.60;99.90
3408;DHT22;1717;50.240;8.406;2022-10-13T08:39:31;13.60;99.90
3408;DHT22;1717;50.240;8.406;2022-10-13T08:41:59;13.70;99.90
3408;DHT22;1717;50.240;8.406;2022-10-13T08:44:33;13.70;99.90
3408;DHT22;1717;50.240;8.406;2022-10-13T08:47:05;13.80;99.90
3408;DHT22;1717;50.240;8.406;2022-10-13T08:49:34;13.80;99.90
3408;DHT22;1717;50.240;8.406;2022-10-13T08:52:04;13.90;99.90
3408;DHT22;1717;50.240;8.406;2022-10-13T08:54:31;13.90;99.90
3408;DHT22;1717;50.240;8.406;2022-10-13T08:56:59;14.00;99.90
3408;DHT22;1717;50.240;8.406;2022-10-13T08:59:26;14.00;99.90
3408;DHT22;1717;50.240;8.406;2022-10-13T09:01:53;14.00;99.90
3408;DHT22;1717;50.240;8.406;2022-10-13T09:04:27;14.00;99.90
3408;DHT22;1717;50.240;8.406;2022-10-13T09:07:04;14.10;99.90
3408;DHT22;1717;50.240;8.406;2022-10-13T09:09:32;14.10;99.90
3408;DHT22;1717;50.240;8.406;2022-10-13T09:11:59;14.20;99.90
3408;DHT22;1717;50.240;8.406;2022-10-13T09:14:29;14.20;99.90
3408;DHT22;1717;50.240;8.406;2022-10-13T09:17:12;14.20;99.90
3408;DHT22;1717;50.240;8.406;2022-10-13T09:19:39;14.30;99.90
3408;DHT22;1717;50.240;8.406;2022-10-13T09:22:18;14.30;99.90
3408;DHT22;1717;50.240;8.406;2022-10-13T09:24:46;14.40;99.90
3408;DHT22;1717;50.240;8.406;2022-10-13T09:27:15;14.40;99.90
3408;DHT22;1717;50.240;8.406;2022-10-13T09:29:43;14.40;99.90
3408;DHT22;1717;50.240;8.406;2022-10-13T09:32:15;14.40;99.90
3408;DHT22;1717;50.240;8.406;2022-10-13T09:34:43;14.40;99.90
3408;DHT22;1717;50.240;8.406;2022-10-13T09:37:19;14.50;99.90
3408;DHT22;1717;50.240;8.406;2022-10-13T09:39:48;14.40;99.90
3408;DHT22;1717;50.240;8.406;2022-10-13T09:42:27;14.50;99.90
3408;DHT22;1717;50.240;8.406;2022-10-13T09:45:11;14.50;99.90
3408;DHT22;1717;50.240;8.406;2022-10-13T09:47:40;14.50;99.90
3408;DHT22;1717;50.240;8.406;2022-10-13T09:50:16;14.50;99.90
3408;DHT22;1717;50.240;8.406;2022-10-13T09:52:46;14.40;99.90
3408;DHT22;1717;50.240;8.406;2022-10-13T09:55:29;14.40;99.90
3408;DHT22;1717;50.240;8.406;2022-10-13T09:58:01;14.40;99.90
3408;DHT22;1717;50.240;8.406;2022-10-13T10:00:31;14.40;99.90
3408;DHT22;1717;50.240;8.406;2022-10-13T10:03:02;14.40;99.90
3408;DHT22;1717;50.240;8.406;2022-10-13T10:05:37;14.50;99.90
3408;DHT22;1717;50.240;8.406;2022-10-13T10:08:13;14.40;99.90
3408;DHT22;1717;50.240;8.406;2022-10-13T10:10:42;14.40;99.90
3408;DHT22;1717;50.240;8.406;2022-10-13T10:13:10;14.40;99.90
3408;DHT22;1717;50.240;8.406;2022-10-13T10:15:45;14.40;99.90
3408;DHT22;1717;50.240;8.406;2022-10-13T10:18:16;14.50;99.90
3408;DHT22;1717;50.240;8.406;2022-10-13T10:21:06;14.40;99.90
3408;DHT22;1717;50.240;8.406;2022-10-13T10:23:42;14.50;99.90
3408;DHT22;1717;50.240;8.406;2022-10-13T10:26:16;14.50;99.90
3408;DHT22;1717;50.240;8.406;2022-10-13T10:29:00;14.50;99.90
3408;DHT22;1717;50.240;8.406;2022-10-13T10:31:41;14.60;99.90
3408;DHT22;1717;50.240;8.406;2022-10-13T10:34:33;14.60;99.90
3408;DHT22;1717;50.240;8.406;2022-10-13T10:37:13;14.70;99.90
3408;DHT22;1717;50.240;8.406;2022-10-13T10:39:47;14.70;99.90
3408;DHT22;1717;50.240;8.406;2022-10-13T10:45:16;14.80;99.90
3408;DHT22;1717;50.240;8.406;2022-10-13T10:47:46;14.90;99.90
3408;DHT22;1717;50.240;8.406;2022-10-13T10:50:16;14.90;99.90
3408;DHT22;1717;50.240;8.406;2022-10-13T10:52:51;14.90;99.90
3408;DHT22;1717;50.240;8.406;2022-10-13T10:55:24;15.00;99.90
3408;DHT22;1717;50.240;8.406;2022-10-13T10:57:59;15.00;99.90
3408;DHT22;1717;50.240;8.406;2022-10-13T11:00:28;15.20;99.90
3408;DHT22;1717;50.240;8.406;2022-10-13T11:03:01;15.20;99.90
3408;DHT22;1717;50.240;8.406;2022-10-13T11:05:58;15.20;99.90
3408;DHT22;1717;50.240;8.406;2022-10-13T11:08:27;15.30;99.90
3408;DHT22;1717;50.240;8.406;2022-10-13T11:11:36;15.30;99.90
3408;DHT22;1717;50.240;8.406;2022-10-13T11:14:25;15.40;99.90
3408;DHT22;1717;50.240;8.406;2022-10-13T11:17:18;15.60;99.90
3408;DHT22;1717;50.240;8.406;2022-10-13T11:19:49;15.60;99.90
3408;DHT22;1717;50.240;8.406;2022-10-13T11:22:19;15.70;99.90
3408;DHT22;1717;50.240;8.406;2022-10-13T11:27:45;15.70;99.90
3408;DHT22;1717;50.240;8.406;2022-10-13T11:30:44;15.80;99.90
3408;DHT22;1717;50.240;8.406;2022-10-13T11:33:51;15.80;99.90
3408;DHT22;1717;50.240;8.406;2022-10-13T11:36:53;15.90;99.90
3408;DHT22;1717;50.240;8.406;2022-10-13T11:45:48;16.10;99.90
3408;DHT22;1717;50.240;8.406;2022-10-13T11:51:33;16.20;99.90
3408;DHT22;1717;50.240;8.406;2022-10-13T11:54:12;16.20;99.90
3408;DHT22;1717;50.240;8.406;2022-10-13T11:56:45;16.20;99.90
3408;DHT22;1717;50.240;8.406;2022-10-13T11:59:21;16.30;99.90
3408;DHT22;1717;50.240;8.406;2022-10-13T12:01:54;16.30;99.90
3408;DHT22;1717;50.240;8.406;2022-10-13T12:04:23;16.30;99.90
3408;DHT22;1717;50.240;8.406;2022-10-13T12:06:57;16.20;99.90
3408;DHT22;1717;50.240;8.406;2022-10-13T12:09:26;16.20;99.90
3408;DHT22;1717;50.240;8.406;2022-10-13T12:11:58;16.20;99.90
3408;DHT22;1717;50.240;8.406;2022-10-13T12:14:30;16.30;99.90
3408;DHT22;1717;50.240;8.406;2022-10-13T12:17:00;16.30;99.90
3408;DHT22;1717;50.240;8.406;2022-10-13T12:19:29;16.30;99.90
3408;DHT22;1717;50.240;8.406;2022-10-13T12:21:57;16.30;99.90
3408;DHT22;1717;50.240;8.406;2022-10-13T12:24:27;16.40;99.90
3408;DHT22;1717;50.240;8.406;2022-10-13T12:26:55;16.40;99.90
3408;DHT22;1717;50.240;8.406;2022-10-13T12:29:24;16.40;99.90
3408;DHT22;1717;50.240;8.406;2022-10-13T12:31:52;16.40;99.90
3408;DHT22;1717;50.240;8.406;2022-10-13T12:34:24;16.50;99.90
3408;DHT22;1717;50.240;8.406;2022-10-13T12:36:55;16.40;99.90
3408;DHT22;1717;50.240;8.406;2022-10-13T12:39:23;16.50;99.90
3408;DHT22;1717;50.240;8.406;2022-10-13T12:41:51;16.40;99.90
3408;DHT22;1717;50.240;8.406;2022-10-13T12:44:21;16.40;99.90
3408;DHT22;1717;50.240;8.406;2022-10-13T12:46:49;16.50;99.90
3408;DHT22;1717;50.240;8.406;2022-10-13T12:49:22;16.40;99.90
3408;DHT22;1717;50.240;8.406;2022-10-13T12:51:51;16.40;99.90
3408;DHT22;1717;50.240;8.406;2022-10-13T12:54:24;16.40;99.90
3408;DHT22;1717;50.240;8.406;2022-10-13T12:56:54;16.50;99.90
3408;DHT22;1717;50.240;8.406;2022-10-13T12:59:22;16.40;99.90
3408;DHT22;1717;50.240;8.406;2022-10-13T13:01:55;16.40;99.90
3408;DHT22;1717;50.240;8.406;2022-10-13T13:04:42;16.40;99.90
3408;DHT22;1717;50.240;8.406;2022-10-13T13:07:27;16.40;99.90
3408;DHT22;1717;50.240;8.406;2022-10-13T13:10:16;16.40;99.90
3408;DHT22;1717;50.240;8.406;2022-10-13T13:12:44;16.40;99.90
3408;DHT22;1717;50.240;8.406;2022-10-13T13:15:28;16.50;99.90
3408;DHT22;1717;50.240;8.406;2022-10-13T13:18:31;16.50;99.90
3408;DHT22;1717;50.240;8.406;2022-10-13T13:21:03;16.50;99.90
3408;DHT22;1717;50.240;8.406;2022-10-13T13:23:30;16.50;99.90
3408;DHT22;1717;50.240;8.406;2022-10-13T13:26:01;16.60;99.90
3408;DHT22;1717;50.240;8.406;2022-10-13T13:28:29;16.60;99.90
3408;DHT22;1717;50.240;8.406;2022-10-13T13:30:57;16.60;99.90
3408;DHT22;1717;50.240;8.406;2022-10-13T13:33:25;16.60;99.90
3408;DHT22;1717;50.240;8.406;2022-10-13T13:35:53;16.60;99.90
3408;DHT22;1717;50.240;8.406;2022-10-13T13:38:20;16.70;99.90
3408;DHT22;1717;50.240;8.406;2022-10-13T13:40:47;16.70;99.90
3408;DHT22;1717;50.240;8.406;2022-10-13T13:43:14;16.70;99.90
3408;DHT22;1717;50.240;8.406;2022-10-13T13:45:41;16.70;99.90
3408;DHT22;1717;50.240;8.406;2022-10-13T13:48:10;16.70;99.90
3408;DHT22;1717;50.240;8.406;2022-10-13T13:50:38;16.70;99.90
3408;DHT22;1717;50.240;8.406;2022-10-13T13:53:06;16.70;99.90
3408;DHT22;1717;50.240;8.406;2022-10-13T13:55:34;16.70;99.90
3408;DHT22;1717;50.240;8.406;2022-10-13T13:58:03;16.80;99.90
3408;DHT22;1717;50.240;8.406;2022-10-13T14:00:30;16.70;99.90
3408;DHT22;1717;50.240;8.406;2022-10-13T14:02:57;16.70;99.90
3408;DHT22;1717;50.240;8.406;2022-10-13T14:05:24;16.70;99.90
3408;DHT22;1717;50.240;8.406;2022-10-13T14:07:54;16.70;99.90
3408;DHT22;1717;50.240;8.406;2022-10-13T14:10:24;16.70;99.90
3408;DHT22;1717;50.240;8.406;2022-10-13T14:12:51;16.70;99.90
3408;DHT22;1717;50.240;8.406;2022-10-13T14:15:18;16.60;99.90
3408;DHT22;1717;50.240;8.406;2022-10-13T14:17:46;16.60;99.90
3408;DHT22;1717;50.240;8.406;2022-10-13T14:20:12;16.60;99.90
3408;DHT22;1717;50.240;8.406;2022-10-13T14:22:39;16.60;99.90
3408;DHT22;1717;50.240;8.406;2022-10-13T14:25:07;16.60;99.90
3408;DHT22;1717;50.240;8.406;2022-10-13T14:27:36;16.60;99.90
3408;DHT22;1717;50.240;8.406;2022-10-13T14:30:04;16.60;99.90
3408;DHT22;1717;50.240;8.406;2022-10-13T14:32:31;16.60;99.90
3408;DHT22;1717;50.240;8.406;2022-10-13T14:34:59;16.60;99.90
3408;DHT22;1717;50.240;8.406;2022-10-13T14:37:26;16.60;99.90
3408;DHT22;1717;50.240;8.406;2022-10-13T14:39:53;16.60;99.90
3408;DHT22;1717;50.240;8.406;2022-10-13T14:42:20;16.60;99.90
3408;DHT22;1717;50.240;8.406;2022-10-13T14:44:49;16.60;99.90
3408;DHT22;1717;50.240;8.406;2022-10-13T14:47:16;16.60;99.90
3408;DHT22;1717;50.240;8.406;2022-10-13T14:49:42;16.60;99.90
3408;DHT22;1717;50.240;8.406;2022-10-13T14:52:10;16.60;99.90
3408;DHT22;1717;50.240;8.406;2022-10-13T14:54:36;16.60;99.90
3408;DHT22;1717;50.240;8.406;2022-10-13T14:57:03;16.60;99.90
3408;DHT22;1717;50.240;8.406;2022-10-13T14:59:32;16.70;99.90
3408;DHT22;1717;50.240;8.406;2022-10-13T15:02:00;16.50;99.90
3408;DHT22;1717;50.240;8.406;2022-10-13T15:04:27;16.50;99.90
3408;DHT22;1717;50.240;8.406;2022-10-13T15:06:54;16.50;99.90
3408;DHT22;1717;50.240;8.406;2022-10-13T15:09:21;16.50;99.90
3408;DHT22;1717;50.240;8.406;2022-10-13T15:11:48;16.40;99.90
3408;DHT22;1717;50.240;8.406;2022-10-13T15:14:15;16.40;99.90
3408;DHT22;1717;50.240;8.406;2022-10-13T15:16:42;16.40;99.90
3408;DHT22;1717;50.240;8.406;2022-10-13T15:19:11;16.40;99.90
3408;DHT22;1717;50.240;8.406;2022-10-13T15:21:39;16.30;99.90
3408;DHT22;1717;50.240;8.406;2022-10-13T15:24:06;16.40;99.90
3408;DHT22;1717;50.240;8.406;2022-10-13T15:26:34;16.40;99.90
3408;DHT22;1717;50.240;8.406;2022-10-13T15:29:01;16.30;99.90
3408;DHT22;1717;50.240;8.406;2022-10-13T15:31:29;16.30;99.90
3408;DHT22;1717;50.240;8.406;2022-10-13T15:33:56;16.30;99.90
3408;DHT22;1717;50.240;8.406;2022-10-13T15:36:25;16.30;99.90
3408;DHT22;1717;50.240;8.406;2022-10-13T15:38:52;16.30;99.90
3408;DHT22;1717;50.240;8.406;2022-10-13T15:41:18;16.30;99.90
3408;DHT22;1717;50.240;8.406;2022-10-13T15:43:48;16.20;99.90
3408;DHT22;1717;50.240;8.406;2022-10-13T15:46:16;16.20;99.90
3408;DHT22;1717;50.240;8.406;2022-10-13T15:48:49;16.20;99.90
3408;DHT22;1717;50.240;8.406;2022-10-13T15:51:19;16.10;99.90
3408;DHT22;1717;50.240;8.406;2022-10-13T15:53:49;16.10;99.90
3408;DHT22;1717;50.240;8.406;2022-10-13T15:56:16;16.10;99.90
3408;DHT22;1717;50.240;8.406;2022-10-13T15:58:44;16.10;99.90
3408;DHT22;1717;50.240;8.406;2022-10-13T16:01:12;16.10;99.90
3408;DHT22;1717;50.240;8.406;2022-10-13T16:03:40;16.00;99.90
3408;DHT22;1717;50.240;8.406;2022-10-13T16:06:09;16.10;99.90
3408;DHT22;1717;50.240;8.406;2022-10-13T16:08:36;16.00;99.90
3408;DHT22;1717;50.240;8.406;2022-10-13T16:11:10;16.00;99.90
3408;DHT22;1717;50.240;8.406;2022-10-13T16:13:38;16.00;99.90
3408;DHT22;1717;50.240;8.406;2022-10-13T16:16:07;16.00;99.90
3408;DHT22;1717;50.240;8.406;2022-10-13T16:18:36;16.00;99.90
3408;DHT22;1717;50.240;8.406;2022-10-13T16:21:14;15.90;99.90
3408;DHT22;1717;50.240;8.406;2022-10-13T16:23:41;15.90;99.90
3408;DHT22;1717;50.240;8.406;2022-10-13T16:26:10;15.80;99.90
3408;DHT22;1717;50.240;8.406;2022-10-13T16:28:37;15.80;99.90
3408;DHT22;1717;50.240;8.406;2022-10-13T16:31:05;15.80;99.90
3408;DHT22;1717;50.240;8.406;2022-10-13T16:33:33;15.70;99.90
3408;DHT22;1717;50.240;8.406;2022-10-13T16:36:01;15.70;99.90
3408;DHT22;1717;50.240;8.406;2022-10-13T16:38:28;15.60;99.90